Main page
METAR-TAF:

METAR-TAF

Airports :

McMinnville Municipal Airport

McMinnville, Oregon, United States

latitude: 45-11-46N, longitude: 123-07-56W, elevation: 157 ft

Current weather observation

The report was made 26 minutes ago, at 03:53 UTC
Wind 7 mph from the North/Northwest
Temperature 50°F
Humidity 71%
Pressure 30.14 in. Hg
Visibility: 10 miles
Clear sky

METAR: KMMV 190353Z AUTO 33006KT 10SM CLR 10/05 A3014 RMK AO2 SLP207 T01000050

Time: 21:19 (04:19 UTC)


TAF: missing

Weather observations and forecasts of more than 4000 airports (METAR and TAF reports).

The available stations are represented by yellow and red dots on the map.

Hover mouse over dot to see the name of the station.

Then click to see weather observations and forecasts.

To change the map : click on the green buttons with a black cross to zoom in, on the green button with a dash to zoom out, or on the green arrows for adjacent maps.


METAR-TAF: